Time;durP1;ratioP1;P1;durP2;ratioP2;P2;SDS_P1;SDS_P2;PMS_P1;PMS_P2;Temp;Humidity;BMP_temperature;BMP_pressure;BME280_temperature;BME280_humidity;BME280_pressure;Samples;Min_cycle;Max_cycle;Signal;HPM_P1;HPM_P2
2022/05/18 00:01:35;;;;;;;6.68;4.25;;;17.70;99.90;;;;;;5070408;28;20780;-66
2022/05/18 00:04:00;;;;;;;6.05;3.60;;;17.70;99.90;;;;;;5070492;28;20025;-67
2022/05/18 00:06:26;;;;;;;5.80;4.13;;;17.70;99.90;;;;;;5052540;28;20051;-66
2022/05/18 00:08:52;;;;;;;6.63;3.83;;;17.60;99.90;;;;;;5035846;28;20083;-65
2022/05/18 00:11:19;;;;;;;7.32;4.25;;;17.60;99.90;;;;;;5052234;28;20119;-65
2022/05/18 00:13:48;;;;;;;9.38;4.43;;;17.60;99.90;;;;;;5052680;28;20119;-67
2022/05/18 00:16:15;;;;;;;6.63;4.25;;;17.60;99.90;;;;;;5070415;28;20432;-66
2022/05/18 00:18:40;;;;;;;10.18;4.10;;;17.60;99.90;;;;;;5051946;28;20098;-66
2022/05/18 00:21:06;;;;;;;6.95;3.90;;;17.50;99.90;;;;;;5052498;28;20471;-67
2022/05/18 00:23:33;;;;;;;7.50;4.18;;;17.50;99.90;;;;;;5070157;28;20036;-67
2022/05/18 00:25:59;;;;;;;5.68;3.88;;;17.50;99.90;;;;;;5070177;28;20491;-65
2022/05/18 00:28:25;;;;;;;8.45;4.38;;;17.50;99.90;;;;;;5052257;28;20040;-66
2022/05/18 00:30:51;;;;;;;7.35;3.97;;;17.40;99.90;;;;;;5070372;28;20037;-66
2022/05/18 00:33:17;;;;;;;7.30;4.13;;;17.40;99.90;;;;;;5052268;28;20033;-65
2022/05/18 00:35:43;;;;;;;8.40;4.30;;;17.40;99.90;;;;;;5070176;28;20402;-65
2022/05/18 00:38:09;;;;;;;5.55;3.97;;;17.40;99.90;;;;;;5070161;28;20028;-66
2022/05/18 00:40:38;;;;;;;7.53;4.28;;;17.40;99.90;;;;;;5051731;28;20041;-66
2022/05/18 00:43:04;;;;;;;4.93;3.85;;;17.40;99.90;;;;;;5070153;28;20056;-65
2022/05/18 00:45:30;;;;;;;7.25;3.45;;;17.40;99.90;;;;;;5051951;28;20044;-66
2022/05/18 00:47:55;;;;;;;6.82;3.80;;;17.30;99.90;;;;;;5052575;28;20056;-65
2022/05/18 00:50:34;;;;;;;6.90;4.30;;;17.30;99.90;;;;;;5051723;28;20052;-66
2022/05/18 00:53:16;;;;;;;6.57;4.32;;;17.30;99.90;;;;;;5070268;28;20032;-66
2022/05/18 00:55:44;;;;;;;7.68;4.07;;;17.30;99.90;;;;;;5051894;28;20032;-66
2022/05/18 00:58:22;;;;;;;6.53;4.10;;;17.30;99.90;;;;;;5052089;28;20051;-66
2022/05/18 01:00:50;;;;;;;6.30;3.95;;;17.20;99.90;;;;;;5051792;28;20074;-65
2022/05/18 01:03:34;;;;;;;4.63;4.10;;;17.20;99.90;;;;;;5070427;28;20376;-65
2022/05/18 01:06:09;;;;;;;6.57;4.28;;;17.20;99.90;;;;;;5052074;28;20045;-65
2022/05/18 01:08:47;;;;;;;9.55;4.00;;;17.10;99.90;;;;;;5069614;28;20056;-66
2022/05/18 01:11:13;;;;;;;6.50;4.20;;;17.10;99.90;;;;;;5052262;28;20389;-65
2022/05/18 01:13:39;;;;;;;7.15;4.50;;;17.00;99.90;;;;;;5051930;28;20044;-66
2022/05/18 01:16:06;;;;;;;9.30;4.70;;;17.00;99.90;;;;;;5051754;28;20050;-66
2022/05/18 01:18:32;;;;;;;6.63;4.20;;;17.00;99.90;;;;;;5055261;28;20127;-66
2022/05/18 01:20:58;;;;;;;6.65;4.13;;;17.00;99.90;;;;;;5055579;28;20083;-66
2022/05/18 01:23:53;;;;;;;8.77;4.35;;;16.90;99.90;;;;;;5055329;28;20085;-65
2022/05/18 01:26:47;;;;;;;7.90;4.32;;;16.90;99.90;;;;;;5055460;28;20098;-67
2022/05/18 01:29:16;;;;;;;7.40;4.55;;;16.90;99.90;;;;;;5073297;28;20119;-65
2022/05/18 01:31:57;;;;;;;6.60;4.57;;;16.80;99.90;;;;;;5072939;28;20139;-66
2022/05/18 01:34:29;;;;;;;7.03;4.53;;;16.80;99.90;;;;;;5055545;28;20487;-65
2022/05/18 01:36:55;;;;;;;8.30;4.32;;;16.80;99.90;;;;;;5072729;28;20036;-65
2022/05/18 01:39:24;;;;;;;9.65;5.28;;;16.80;99.90;;;;;;5038762;28;20036;-65
2022/05/18 01:42:07;;;;;;;6.30;4.85;;;16.70;99.90;;;;;;5054861;28;20138;-66
2022/05/18 01:44:35;;;;;;;8.32;4.65;;;16.70;99.90;;;;;;5072947;28;20040;-65
2022/05/18 01:47:01;;;;;;;8.18;4.47;;;16.70;99.90;;;;;;5072897;28;20137;-66
2022/05/18 01:49:26;;;;;;;6.10;4.25;;;16.60;99.90;;;;;;5072749;28;20495;-65
2022/05/18 01:51:54;;;;;;;8.15;4.28;;;16.60;99.90;;;;;;5054617;28;20037;-66
2022/05/18 01:54:19;;;;;;;7.93;4.55;;;16.60;99.90;;;;;;5055113;28;20040;-65
2022/05/18 01:56:46;;;;;;;7.88;5.00;;;16.60;99.90;;;;;;5072572;28;20049;-66
2022/05/18 01:59:12;;;;;;;7.70;4.25;;;16.50;99.90;;;;;;5072813;28;20036;-66
2022/05/18 02:01:38;;;;;;;8.75;5.00;;;16.50;99.90;;;;;;5072624;28;20036;-66
2022/05/18 02:04:04;;;;;;;6.57;4.68;;;16.40;99.90;;;;;;5072508;28;20051;-67
2022/05/18 02:06:32;;;;;;;5.20;4.38;;;16.40;99.90;;;;;;5072677;28;20042;-65
2022/05/18 02:08:58;;;;;;;8.25;5.28;;;16.40;99.90;;;;;;5054194;28;20113;-66
2022/05/18 02:11:24;;;;;;;10.25;5.07;;;16.30;99.90;;;;;;5054548;28;20040;-65
2022/05/18 02:13:51;;;;;;;6.75;4.90;;;16.30;99.90;;;;;;5072193;28;20403;-66
2022/05/18 02:16:17;;;;;;;8.07;5.50;;;16.20;99.90;;;;;;5037735;28;20054;-66
2022/05/18 02:18:42;;;;;;;7.78;5.07;;;16.20;99.90;;;;;;5054011;28;20551;-65
2022/05/18 02:21:11;;;;;;;10.13;5.18;;;16.20;99.90;;;;;;5054317;28;20072;-67
2022/05/18 02:23:39;;;;;;;7.63;5.38;;;16.10;99.90;;;;;;5054227;28;20445;-65
2022/05/18 02:26:08;;;;;;;8.25;5.03;;;16.10;99.90;;;;;;5072162;28;20032;-65
2022/05/18 02:28:34;;;;;;;7.68;5.28;;;16.10;99.90;;;;;;5054500;28;20076;-65
2022/05/18 02:31:00;;;;;;;8.07;5.00;;;16.10;99.90;;;;;;5071842;28;20083;-67
2022/05/18 02:33:25;;;;;;;8.00;5.18;;;16.00;99.90;;;;;;5054447;28;20047;-66
2022/05/18 02:35:51;;;;;;;8.73;5.13;;;16.00;99.90;;;;;;5053854;28;20090;-66
2022/05/18 02:38:17;;;;;;;7.35;5.18;;;16.00;99.90;;;;;;5037087;28;20538;-65
2022/05/18 02:40:43;;;;;;;6.28;4.95;;;15.90;99.90;;;;;;5053914;28;20123;-66
2022/05/18 02:43:09;;;;;;;6.28;4.68;;;15.90;99.90;;;;;;5071586;28;20403;-66
2022/05/18 02:45:34;;;;;;;6.18;5.07;;;15.90;99.90;;;;;;5071934;28;20044;-65
2022/05/18 02:48:00;;;;;;;6.78;5.60;;;15.80;99.90;;;;;;5071632;28;20048;-66
2022/05/18 02:50:26;;;;;;;7.47;4.78;;;15.80;99.90;;;;;;5053634;28;20541;-65
2022/05/18 02:52:52;;;;;;;7.47;5.43;;;15.80;99.90;;;;;;5053222;28;20060;-65
2022/05/18 02:58:02;;;;;;;9.05;5.10;;;15.70;99.90;;;;;;5071051;28;20055;-65
2022/05/18 03:00:28;;;;;;;8.10;5.35;;;15.70;99.90;;;;;;5071449;28;20036;-65
2022/05/18 03:02:54;;;;;;;5.80;5.03;;;15.70;99.90;;;;;;5071414;28;20503;-66
2022/05/18 03:05:20;;;;;;;7.90;5.13;;;15.60;99.90;;;;;;5053222;28;20112;-66
2022/05/18 03:07:45;;;;;;;5.45;4.55;;;15.60;99.90;;;;;;5071321;28;20495;-65
2022/05/18 03:10:15;;;;;;;6.55;5.00;;;15.60;99.90;;;;;;5053172;28;20044;-66
2022/05/18 03:12:42;;;;;;;8.02;5.00;;;15.50;99.90;;;;;;5053287;28;20086;-65
2022/05/18 03:15:09;;;;;;;8.02;4.63;;;15.50;99.90;;;;;;5071316;28;20036;-66
2022/05/18 03:17:34;;;;;;;8.30;5.07;;;15.50;99.90;;;;;;5071119;28;20048;-66
2022/05/18 03:20:00;;;;;;;6.28;5.10;;;15.40;99.90;;;;;;5071245;28;20052;-65
2022/05/18 03:25:10;;;;;;;7.25;5.63;;;15.40;99.90;;;;;;5052711;28;20040;-65
2022/05/18 03:27:43;;;;;;;8.57;5.05;;;15.30;99.90;;;;;;5053195;28;20045;-67
2022/05/18 03:30:11;;;;;;;8.80;5.28;;;15.30;99.90;;;;;;5053115;28;20475;-65
2022/05/18 03:32:37;;;;;;;6.75;5.85;;;15.30;99.90;;;;;;5071180;28;20051;-64
2022/05/18 03:35:03;;;;;;;7.30;5.13;;;15.20;99.90;;;;;;5070906;28;20040;-66
2022/05/18 03:37:28;;;;;;;7.03;5.53;;;15.20;99.90;;;;;;5035717;28;20063;-65
2022/05/18 03:39:54;;;;;;;7.90;5.88;;;15.20;99.90;;;;;;5052631;28;20041;-65
2022/05/18 03:42:20;;;;;;;7.05;5.30;;;15.20;99.90;;;;;;5052498;28;20037;-65
2022/05/18 03:44:45;;;;;;;7.32;5.03;;;15.20;99.90;;;;;;5053090;28;20406;-66
2022/05/18 03:47:11;;;;;;;8.63;5.40;;;15.20;99.90;;;;;;5052572;28;20040;-65
2022/05/18 03:49:37;;;;;;;7.78;5.90;;;15.10;99.90;;;;;;5052695;28;20055;-65
2022/05/18 03:52:03;;;;;;;8.60;6.28;;;15.10;99.90;;;;;;5035880;28;20398;-65
2022/05/18 03:54:29;;;;;;;7.40;5.97;;;15.10;99.90;;;;;;5070377;28;20131;-65
2022/05/18 03:56:54;;;;;;;8.85;6.18;;;15.10;99.90;;;;;;5070740;28;20123;-66
2022/05/18 03:59:20;;;;;;;8.88;5.65;;;15.10;99.90;;;;;;5052637;28;20048;-67
2022/05/18 04:01:46;;;;;;;8.43;6.15;;;15.10;99.90;;;;;;5052935;28;20075;-65
2022/05/18 04:04:11;;;;;;;9.93;6.72;;;15.10;99.90;;;;;;5052269;28;20040;-66
2022/05/18 04:06:37;;;;;;;9.07;6.63;;;15.20;99.90;;;;;;5070680;28;20403;-66
2022/05/18 04:09:03;;;;;;;10.40;6.82;;;15.20;99.90;;;;;;5052433;28;20036;-66
2022/05/18 04:11:29;;;;;;;8.95;7.10;;;15.20;99.90;;;;;;5052375;28;20475;-66
2022/05/18 04:13:55;;;;;;;8.02;6.50;;;15.30;99.90;;;;;;5070688;28;20090;-65
2022/05/18 04:16:21;;;;;;;8.25;6.40;;;15.30;99.90;;;;;;5052201;28;20123;-66
2022/05/18 04:18:47;;;;;;;10.43;6.72;;;15.40;99.90;;;;;;5052243;28;20123;-66
2022/05/18 04:21:12;;;;;;;9.05;6.88;;;15.40;99.90;;;;;;5070442;28;20044;-65
2022/05/18 04:23:40;;;;;;;10.23;6.68;;;15.40;99.90;;;;;;5070202;28;20037;-66
2022/05/18 04:26:06;;;;;;;12.25;7.00;;;15.40;99.90;;;;;;5052324;28;20039;-66
2022/05/18 04:28:32;;;;;;;9.02;6.65;;;15.50;99.90;;;;;;5052377;28;20495;-67
2022/05/18 04:30:58;;;;;;;9.63;6.45;;;15.50;99.90;;;;;;5052362;28;20032;-65
2022/05/18 04:33:24;;;;;;;8.93;6.70;;;15.60;99.90;;;;;;5051439;28;20491;-66
2022/05/18 04:35:50;;;;;;;9.40;7.57;;;15.60;99.90;;;;;;5035795;28;20349;-66
2022/05/18 04:38:18;;;;;;;8.35;7.00;;;15.60;99.90;;;;;;5051956;28;20049;-65
2022/05/18 04:40:43;;;;;;;9.32;6.57;;;15.70;99.90;;;;;;5070315;28;20040;-65
2022/05/18 04:43:09;;;;;;;12.95;6.57;;;15.70;99.90;;;;;;5052333;28;20391;-65
2022/05/18 04:45:36;;;;;;;11.38;7.53;;;15.80;99.90;;;;;;5051989;28;20036;-65
2022/05/18 04:48:02;;;;;;;8.32;7.40;;;15.90;99.90;;;;;;5052540;28;20368;-65
2022/05/18 04:50:27;;;;;;;11.65;7.50;;;15.90;99.90;;;;;;5069827;28;20048;-66
2022/05/18 04:52:53;;;;;;;10.90;7.18;;;16.00;99.90;;;;;;5055097;28;20032;-65
2022/05/18 04:55:19;;;;;;;9.25;6.97;;;16.10;99.90;;;;;;5073927;28;20076;-65
2022/05/18 04:57:44;;;;;;;9.57;7.65;;;16.20;99.90;;;;;;5073913;28;20116;-65
2022/05/18 05:00:12;;;;;;;9.73;7.38;;;16.30;99.90;;;;;;5056073;28;20040;-66
2022/05/18 05:02:39;;;;;;;8.07;7.28;;;16.30;99.90;;;;;;5055694;28;20051;-65
2022/05/18 05:05:07;;;;;;;12.13;7.68;;;16.50;99.90;;;;;;5073806;28;20040;-65
2022/05/18 05:07:33;;;;;;;9.05;7.00;;;16.60;99.90;;;;;;5055394;28;20044;-65
2022/05/18 05:09:58;;;;;;;13.35;7.70;;;16.70;99.90;;;;;;5055244;28;20491;-66
2022/05/18 05:12:26;;;;;;;10.30;7.32;;;16.80;99.90;;;;;;5055964;28;20052;-66
2022/05/18 05:14:51;;;;;;;10.73;7.90;;;16.90;99.90;;;;;;5073426;28;20491;-65
2022/05/18 05:17:17;;;;;;;9.02;7.82;;;17.00;99.90;;;;;;5055416;28;20047;-65
2022/05/18 05:19:43;;;;;;;10.23;7.72;;;17.10;99.90;;;;;;5073029;28;20377;-65
2022/05/18 05:22:08;;;;;;;13.00;7.30;;;17.20;99.90;;;;;;5073451;28;20561;-66
2022/05/18 05:24:35;;;;;;;8.27;6.95;;;17.30;99.90;;;;;;5073139;28;20121;-66
2022/05/18 05:27:00;;;;;;;10.40;7.88;;;17.40;99.90;;;;;;5055588;28;20380;-65
2022/05/18 05:29:26;;;;;;;12.50;7.60;;;17.50;99.90;;;;;;5055322;28;20052;-66
2022/05/18 05:31:52;;;;;;;11.25;7.45;;;17.60;99.90;;;;;;5073087;28;20040;-66
2022/05/18 05:34:17;;;;;;;14.27;8.02;;;17.60;99.90;;;;;;5055561;28;20468;-64
2022/05/18 05:36:43;;;;;;;7.80;6.97;;;17.70;99.90;;;;;;5054973;28;20040;-65
2022/05/18 05:39:08;;;;;;;12.25;8.02;;;17.80;99.90;;;;;;5055081;28;20040;-66
2022/05/18 05:41:34;;;;;;;10.48;7.07;;;18.00;99.90;;;;;;5072945;28;20032;-65
2022/05/18 05:44:00;;;;;;;9.15;7.03;;;18.10;99.90;;;;;;5055125;28;20055;-66
2022/05/18 05:46:27;;;;;;;11.70;7.50;;;18.20;99.90;;;;;;5055110;28;20080;-66
2022/05/18 05:48:55;;;;;;;9.68;6.80;;;18.30;99.90;;;;;;5054405;28;20048;-66
2022/05/18 05:51:23;;;;;;;10.75;7.63;;;18.30;99.90;;;;;;5055172;28;20044;-67
2022/05/18 05:53:51;;;;;;;12.45;8.05;;;18.50;99.90;;;;;;5054626;28;20048;-65
2022/05/18 05:56:17;;;;;;;9.18;7.22;;;18.50;99.90;;;;;;5054958;28;20044;-66
2022/05/18 05:58:43;;;;;;;7.88;7.07;;;18.70;99.90;;;;;;5037551;28;20064;-65
2022/05/18 06:01:12;;;;;;;10.60;7.50;;;18.80;99.90;;;;;;5055059;28;20079;-65
2022/05/18 06:03:39;;;;;;;10.95;7.30;;;18.90;99.90;;;;;;5054052;28;20039;-65
2022/05/18 06:06:05;;;;;;;9.35;7.22;;;19.00;99.90;;;;;;5054688;28;20072;-65
2022/05/18 06:08:32;;;;;;;10.70;8.27;;;19.00;99.90;;;;;;5054546;28;20045;-66
2022/05/18 06:10:59;;;;;;;10.20;7.43;;;19.10;99.90;;;;;;5054510;28;20047;-66
2022/05/18 06:13:26;;;;;;;9.27;7.22;;;19.10;99.90;;;;;;5072577;28;20490;-66
2022/05/18 06:15:52;;;;;;;8.98;7.55;;;19.20;99.90;;;;;;5072249;28;20038;-66
2022/05/18 06:18:18;;;;;;;10.48;7.60;;;19.30;99.90;;;;;;5036947;28;20067;-66
2022/05/18 06:20:46;;;;;;;8.98;6.78;;;19.40;99.90;;;;;;5072359;28;20044;-66
2022/05/18 06:23:11;;;;;;;8.95;6.72;;;19.60;99.90;;;;;;5054350;28;20044;-67
2022/05/18 06:25:38;;;;;;;8.90;7.38;;;19.80;99.90;;;;;;5072102;28;20093;-66
2022/05/18 06:28:05;;;;;;;11.35;7.68;;;20.00;99.90;;;;;;5054114;28;20063;-66
2022/05/18 06:30:31;;;;;;;12.45;7.88;;;20.10;99.90;;;;;;5054307;28;20147;-66
2022/05/18 06:32:57;;;;;;;9.85;7.10;;;20.20;99.90;;;;;;5053763;28;20036;-66
2022/05/18 06:35:23;;;;;;;9.40;7.57;;;20.40;99.90;;;;;;5054135;28;20036;-66
2022/05/18 06:37:49;;;;;;;8.50;6.60;;;20.60;99.90;;;;;;5053929;28;20127;-66
2022/05/18 06:40:16;;;;;;;11.52;7.53;;;20.70;99.90;;;;;;5072037;28;20509;-65
2022/05/18 06:42:43;;;;;;;7.90;7.00;;;20.80;99.90;;;;;;5071924;28;20037;-66
2022/05/18 06:45:11;;;;;;;7.78;6.78;;;20.90;99.90;;;;;;5054007;28;20517;-66
2022/05/18 06:47:36;;;;;;;7.25;6.55;;;21.00;99.90;;;;;;5053918;28;20048;-66
2022/05/18 06:50:04;;;;;;;9.40;7.03;;;21.10;99.90;;;;;;5053374;28;20479;-66
2022/05/18 06:52:29;;;;;;;11.75;7.30;;;21.20;99.90;;;;;;5053844;28;20131;-66
2022/05/18 06:54:55;;;;;;;8.68;7.25;;;21.30;99.90;;;;;;5053522;28;20082;-66
2022/05/18 06:57:21;;;;;;;9.57;7.75;;;21.40;99.90;;;;;;5071847;28;20114;-66
2022/05/18 06:59:47;;;;;;;9.77;6.88;;;21.50;99.90;;;;;;5053726;28;20040;-66
2022/05/18 07:02:13;;;;;;;7.88;6.63;;;21.60;99.90;;;;;;5053399;28;20043;-66
2022/05/18 07:04:39;;;;;;;11.07;7.25;;;21.80;99.90;;;;;;5053672;28;20040;-66
2022/05/18 07:07:04;;;;;;;8.63;7.25;;;21.90;99.90;;;;;;5053451;28;20049;-66
2022/05/18 07:09:30;;;;;;;7.57;5.85;;;22.00;99.90;;;;;;5053824;28;20071;-66
2022/05/18 07:11:56;;;;;;;11.15;6.68;;;22.10;99.90;;;;;;5053207;28;20044;-66
2022/05/18 07:14:24;;;;;;;12.80;6.45;;;22.20;99.90;;;;;;5052584;28;20055;-66
2022/05/18 07:16:50;;;;;;;7.28;6.57;;;22.30;99.90;;;;;;5053269;28;20048;-66
2022/05/18 07:19:17;;;;;;;9.13;6.60;;;22.50;99.90;;;;;;5070982;28;20584;-66
2022/05/18 07:21:43;;;;;;;9.90;6.43;;;22.70;99.90;;;;;;5052875;28;20041;-67
2022/05/18 07:24:09;;;;;;;11.07;7.00;;;22.90;99.90;;;;;;5070772;28;20036;-66
2022/05/18 07:26:35;;;;;;;10.35;6.82;;;23.00;99.90;;;;;;5053242;28;20125;-66
2022/05/18 07:29:03;;;;;;;9.75;6.60;;;23.10;99.90;;;;;;5071285;28;20419;-66
2022/05/18 07:32:08;;;;;;;9.25;6.70;;;23.20;99.90;;;;;;5052996;28;20060;-66
2022/05/18 07:34:18;;;;;;;8.23;6.50;;;23.30;99.90;;;;;;5070773;28;20410;-66
2022/05/18 07:36:44;;;;;;;9.70;6.82;;;23.50;99.90;;;;;;5070926;28;20548;-66
2022/05/18 07:39:11;;;;;;;7.35;6.60;;;23.70;99.90;;;;;;5052665;28;20044;-67
2022/05/18 07:41:38;;;;;;;10.10;6.85;;;23.80;99.90;;;;;;5053175;28;20036;-67
2022/05/18 07:44:04;;;;;;;8.48;6.72;;;23.90;99.90;;;;;;5070933;28;20500;-66
2022/05/18 07:46:30;;;;;;;10.82;6.70;;;23.90;99.90;;;;;;5036438;28;20395;-66
2022/05/18 07:48:55;;;;;;;9.85;6.07;;;24.10;99.90;;;;;;5053048;28;20044;-67
2022/05/18 07:51:21;;;;;;;9.95;5.72;;;24.20;99.90;;;;;;5070816;28;20043;-67
2022/05/18 07:53:47;;;;;;;7.85;6.05;;;24.30;99.90;;;;;;5070766;28;20033;-66
2022/05/18 07:56:13;;;;;;;9.15;5.13;;;24.20;99.90;;;;;;5070383;28;20048;-66
2022/05/18 07:58:39;;;;;;;9.00;6.72;;;24.10;99.90;;;;;;5070790;28;20044;-67
2022/05/18 08:01:07;;;;;;;11.07;6.03;;;24.00;99.90;;;;;;5052188;28;20044;-66
2022/05/18 08:03:33;;;;;;;9.60;6.10;;;23.90;99.90;;;;;;5052633;28;20045;-67
2022/05/18 08:05:58;;;;;;;9.07;6.13;;;23.90;99.90;;;;;;5070561;28;20094;-66
2022/05/18 08:08:24;;;;;;;10.70;6.20;;;24.10;99.90;;;;;;5052510;28;20040;-65
2022/05/18 08:16:19;;;;;;;8.90;6.55;;;24.60;99.90;;;;;;5070313;28;20124;-64
2022/05/18 08:18:46;;;;;;;7.88;5.82;;;24.50;99.90;;;;;;5070271;28;20052;-64
2022/05/18 08:21:11;;;;;;;8.65;5.65;;;24.60;99.90;;;;;;5070263;28;20049;-65
2022/05/18 08:23:38;;;;;;;7.32;5.90;;;24.60;99.90;;;;;;5070427;28;20091;-65
2022/05/18 08:26:04;;;;;;;7.38;5.40;;;24.80;99.90;;;;;;5054030;28;20036;-65
2022/05/18 08:28:31;;;;;;;6.97;5.60;;;24.70;99.90;;;;;;5074282;28;20380;-64
2022/05/18 08:30:58;;;;;;;8.75;5.70;;;24.90;99.90;;;;;;5074700;28;20029;-65
2022/05/18 08:33:24;;;;;;;8.52;5.03;;;25.00;99.90;;;;;;5039605;28;20128;-63
2022/05/18 08:35:50;;;;;;;8.05;5.70;;;25.20;99.90;;;;;;5074260;28;20470;-64
2022/05/18 08:38:17;;;;;;;11.32;5.68;;;25.20;99.90;;;;;;5056039;28;20048;-64
2022/05/18 08:41:00;;;;;;;8.73;5.72;;;25.30;99.90;;;;;;5056260;28;20115;-64
2022/05/18 08:43:31;;;;;;;11.02;6.65;;;25.40;99.90;;;;;;5056515;28;20043;-65
2022/05/18 08:46:17;;;;;;;12.63;6.60;;;25.50;99.90;;;;;;5056429;28;20048;-64
2022/05/18 08:48:52;;;;;;;7.68;5.93;;;25.50;99.90;;;;;;5039308;28;20102;-65
2022/05/18 08:51:53;;;;;;;9.30;6.45;;;25.60;99.90;;;;;;5056411;28;20056;-65
2022/05/18 08:54:43;;;;;;;11.48;6.35;;;25.60;99.90;;;;;;4956612;28;20082;-65
2022/05/18 08:57:21;;;;;;;8.60;7.32;;;25.60;99.90;;;;;;4956637;28;20397;-65
2022/05/18 08:59:55;;;;;;;9.80;7.07;;;25.70;99.90;;;;;;4956861;28;20043;-65
2022/05/18 09:02:26;;;;;;;9.25;6.70;;;25.80;99.90;;;;;;4972727;28;20130;-65
2022/05/18 09:05:01;;;;;;;7.70;6.90;;;25.80;99.90;;;;;;4972921;28;20046;-65
2022/05/18 09:07:33;;;;;;;11.75;7.53;;;26.00;99.90;;;;;;4956434;28;20054;-65
2022/05/18 09:10:16;;;;;;;9.88;7.25;;;26.00;99.90;;;;;;4956672;28;20146;-64
2022/05/18 09:12:48;;;;;;;9.13;6.72;;;26.00;99.90;;;;;;4956637;28;20039;-64
2022/05/18 09:15:17;;;;;;;9.27;7.78;;;26.10;99.90;;;;;;4956005;28;20556;-64
2022/05/18 09:18:01;;;;;;;14.75;8.35;;;26.20;99.90;;;;;;4972262;28;20182;-65
2022/05/18 09:20:48;;;;;;;14.88;8.13;;;26.40;99.90;;;;;;4991484;28;20061;-65
2022/05/18 09:23:35;;;;;;;12.90;8.88;;;26.30;99.60;;;;;;4992026;28;20468;-65
2022/05/18 09:26:22;;;;;;;11.80;8.02;;;26.60;99.70;;;;;;4991980;28;20599;-65
2022/05/18 09:29:26;;;;;;;11.25;7.82;;;26.50;99.10;;;;;;5045661;28;20414;-65
2022/05/18 09:32:10;;;;;;;10.98;7.57;;;26.60;99.20;;;;;;5075440;28;20054;-63
2022/05/18 09:35:04;;;;;;;11.32;8.57;;;26.50;99.00;;;;;;5075075;28;20185;-65
2022/05/18 09:37:36;;;;;;;12.48;8.77;;;26.40;98.50;;;;;;5074366;28;20055;-65
2022/05/18 09:40:20;;;;;;;13.18;8.93;;;26.50;98.90;;;;;;5093548;28;20040;-64
2022/05/18 09:43:10;;;;;;;13.05;8.52;;;26.30;97.80;;;;;;5074924;28;20062;-65
2022/05/18 09:45:39;;;;;;;13.30;8.65;;;26.50;98.40;;;;;;5074733;28;20052;-64
2022/05/18 09:48:15;;;;;;;13.95;9.15;;;26.60;98.20;;;;;;5093276;28;20473;-64
2022/05/18 09:50:48;;;;;;;15.70;10.48;;;26.70;98.10;;;;;;5075144;28;20079;-65
2022/05/18 09:53:15;;;;;;;11.65;8.63;;;26.70;98.00;;;;;;5074971;28;20475;-64
2022/05/18 09:55:43;;;;;;;13.32;8.48;;;26.70;97.00;;;;;;5074944;28;20490;-64
2022/05/18 09:58:36;;;;;;;10.85;7.78;;;26.90;96.10;;;;;;5074856;28;20044;-66
2022/05/18 10:09:46;;;;;;;18.38;10.82;;;26.90;97.50;;;;;;5074722;28;20488;-64
2022/05/18 10:12:19;;;;;;;13.20;10.70;;;27.20;97.70;;;;;;5074660;28;20036;-65
2022/05/18 10:14:56;;;;;;;13.85;11.25;;;27.20;97.30;;;;;;5074266;28;20036;-64
2022/05/18 10:17:29;;;;;;;15.48;10.98;;;27.10;96.70;;;;;;5092609;28;20048;-64
2022/05/18 10:20:07;;;;;;;11.02;9.93;;;27.20;97.60;;;;;;5076785;28;20079;-65
2022/05/18 10:22:40;;;;;;;14.35;12.27;;;27.50;98.10;;;;;;5054708;28;20080;-65
2022/05/18 10:25:32;;;;;;;16.58;11.57;;;27.70;96.80;;;;;;5072277;28;20028;-64
2022/05/18 10:28:02;;;;;;;;;;;27.60;97.20;;;;;;5054858;28;20037;-64
2022/05/18 10:30:32;;;;;;;14.45;10.25;;;27.60;96.90;;;;;;5072188;28;19924;-64
2022/05/18 10:33:02;;;;;;;14.77;11.73;;;27.60;97.20;;;;;;5037483;28;20131;-64
2022/05/18 10:35:38;;;;;;;16.35;11.52;;;28.00;97.50;;;;;;5054535;28;20040;-65
2022/05/18 10:38:34;;;;;;;16.27;11.95;;;28.00;97.10;;;;;;5053945;28;20094;-64
2022/05/18 10:41:02;;;;;;;18.75;12.93;;;27.90;96.70;;;;;;5071717;28;20421;-64
2022/05/18 10:43:35;;;;;;;14.15;12.05;;;27.90;96.50;;;;;;5053996;28;20041;-65
2022/05/18 10:46:11;;;;;;;13.75;12.00;;;27.80;96.20;;;;;;5053818;28;20067;-65
2022/05/18 10:48:38;;;;;;;14.65;11.05;;;27.80;96.60;;;;;;5071244;28;20098;-64
2022/05/18 10:51:07;;;;;;;13.63;10.20;;;28.10;97.10;;;;;;5071279;28;20032;-65
2022/05/18 10:53:36;;;;;;;11.18;9.13;;;28.20;96.90;;;;;;5071881;28;20052;-65
2022/05/18 10:56:04;;;;;;;16.77;11.75;;;28.30;96.60;;;;;;5053684;28;20052;-66
2022/05/18 10:58:49;;;;;;;13.13;11.20;;;28.10;96.50;;;;;;5071569;28;20051;-64
2022/05/18 11:01:34;;;;;;;14.00;11.68;;;27.90;96.10;;;;;;5053646;28;20087;-67
2022/05/18 11:04:19;;;;;;;12.63;9.95;;;27.70;95.70;;;;;;5053347;28;20453;-66
2022/05/18 11:06:45;;;;;;;12.65;10.70;;;27.90;97.70;;;;;;5053464;28;20051;-67
2022/05/18 11:09:32;;;;;;;13.38;10.80;;;27.70;96.80;;;;;;5071335;28;20451;-67
2022/05/18 11:12:35;;;;;;;13.73;11.02;;;27.70;95.90;;;;;;5053526;28;20044;-67
2022/05/18 11:15:07;;;;;;;11.43;9.63;;;27.80;96.70;;;;;;4953920;28;20055;-66
2022/05/18 11:17:44;;;;;;;14.25;10.90;;;28.00;97.00;;;;;;4954300;28;20055;-67
2022/05/18 11:20:31;;;;;;;12.52;11.23;;;28.00;97.10;;;;;;4970701;28;20057;-66
2022/05/18 11:23:05;;;;;;;15.35;11.52;;;28.00;95.90;;;;;;4973239;28;20038;-67
2022/05/18 11:25:37;;;;;;;14.55;10.50;;;28.00;96.60;;;;;;4973705;28;20497;-65
2022/05/18 11:28:18;;;;;;;13.57;10.27;;;28.20;97.10;;;;;;4973112;28;20049;-65
2022/05/18 11:30:49;;;;;;;13.57;12.18;;;28.10;96.90;;;;;;4973288;28;20069;-64
2022/05/18 11:33:37;;;;;;;16.30;11.70;;;27.90;96.90;;;;;;4973161;28;20047;-64
2022/05/18 11:36:28;;;;;;;15.65;12.20;;;27.60;96.80;;;;;;4989212;28;20117;-64
2022/05/18 11:39:07;;;;;;;16.55;12.50;;;27.30;97.00;;;;;;4989395;28;20604;-65
2022/05/18 11:41:59;;;;;;;14.85;12.48;;;27.00;97.50;;;;;;4989488;28;20698;-65
2022/05/18 11:44:43;;;;;;;16.15;12.95;;;26.90;97.80;;;;;;4989402;28;20077;-64
2022/05/18 11:47:38;;;;;;;17.42;13.07;;;26.90;98.30;;;;;;4972876;28;20069;-65
2022/05/18 11:50:16;;;;;;;15.50;12.77;;;26.80;98.20;;;;;;5016014;28;20044;-65
2022/05/18 11:53:04;;;;;;;15.57;13.05;;;26.70;98.50;;;;;;5072897;28;20050;-65
2022/05/18 11:56:04;;;;;;;14.18;12.65;;;26.60;98.10;;;;;;5072737;28;20043;-65
2022/05/18 11:59:16;;;;;;;13.80;11.75;;;26.40;98.30;;;;;;5072794;28;20047;-65
2022/05/18 12:02:10;;;;;;;13.10;11.75;;;26.30;98.50;;;;;;5072644;28;20090;-65
2022/05/18 12:04:50;;;;;;;12.80;10.80;;;26.10;99.00;;;;;;5072862;28;20067;-65
2022/05/18 12:07:49;;;;;;;14.43;11.18;;;26.00;98.70;;;;;;5072663;28;20130;-64
2022/05/18 12:10:36;;;;;;;17.58;10.85;;;26.00;98.60;;;;;;5072675;28;20483;-65
2022/05/18 12:13:17;;;;;;;12.15;9.65;;;25.90;98.90;;;;;;5072808;28;20665;-65
2022/05/18 12:16:01;;;;;;;10.75;8.73;;;25.80;99.20;;;;;;5055575;28;20441;-65
2022/05/18 12:19:08;;;;;;;13.50;10.70;;;25.90;99.50;;;;;;5068944;28;20048;-65
2022/05/18 12:21:48;;;;;;;12.07;10.27;;;25.90;99.50;;;;;;4969434;28;20047;-64
2022/05/18 12:24:15;;;;;;;13.52;10.07;;;25.90;99.20;;;;;;4969300;28;20517;-65
2022/05/18 12:26:43;;;;;;;13.65;9.90;;;25.90;99.10;;;;;;4953430;28;20046;-65
2022/05/18 12:29:12;;;;;;;12.90;9.55;;;25.70;99.30;;;;;;4953384;28;20042;-64
2022/05/18 12:31:38;;;;;;;12.32;9.57;;;25.60;99.70;;;;;;4953352;28;20104;-63
2022/05/18 12:34:13;;;;;;;13.40;9.57;;;25.50;99.90;;;;;;4969372;28;20043;-64
2022/05/18 12:36:44;;;;;;;12.45;9.98;;;25.50;99.80;;;;;;4953409;28;20038;-65
2022/05/18 12:39:14;;;;;;;10.77;8.88;;;25.40;99.60;;;;;;4953313;28;20569;-64
2022/05/18 12:41:52;;;;;;;12.10;10.25;;;25.40;99.90;;;;;;4969798;28;20422;-65
2022/05/18 12:44:40;;;;;;;11.98;9.00;;;25.40;99.90;;;;;;4953095;28;20121;-65
2022/05/18 12:47:24;;;;;;;14.63;9.63;;;25.40;99.90;;;;;;4953285;28;20158;-64
2022/05/18 12:50:19;;;;;;;12.65;9.93;;;25.40;99.90;;;;;;4953451;28;20061;-64
2022/05/18 12:53:00;;;;;;;11.77;8.23;;;25.50;99.90;;;;;;4949029;28;20426;-65
2022/05/18 12:55:32;;;;;;;12.67;10.13;;;25.70;99.90;;;;;;4952817;28;20051;-65
2022/05/18 12:58:09;;;;;;;11.93;9.82;;;25.70;99.90;;;;;;5052498;28;20048;-65
2022/05/18 13:00:46;;;;;;;14.30;11.55;;;25.80;99.90;;;;;;5051762;28;20044;-65
2022/05/18 13:03:11;;;;;;;14.27;11.00;;;25.90;99.90;;;;;;5035420;28;20033;-65
2022/05/18 13:05:51;;;;;;;13.43;10.50;;;25.80;99.90;;;;;;5051921;28;20041;-65
2022/05/18 13:08:19;;;;;;;12.95;9.55;;;25.80;99.80;;;;;;5051953;28;20048;-65
2022/05/18 13:11:14;;;;;;;12.73;10.43;;;25.90;99.90;;;;;;5069854;28;20066;-65
2022/05/18 13:13:58;;;;;;;14.40;10.52;;;25.90;99.90;;;;;;5037752;28;21092;-65
2022/05/18 13:16:39;;;;;;;16.17;11.77;;;25.80;99.90;;;;;;5073496;28;20050;-64
2022/05/18 13:19:14;;;;;;;16.63;12.18;;;25.80;99.90;;;;;;5055475;28;20137;-65
2022/05/18 13:22:06;;;;;;;20.80;14.00;;;25.90;99.90;;;;;;5073369;28;20495;-65